createdAt,value
2022-09-15T00:01:14.834Z,88.23
2022-09-15T00:03:43.046Z,88.27
2022-09-15T00:06:11.272Z,87.87
2022-09-15T00:08:39.691Z,87.42
2022-09-15T00:11:12.195Z,88.17
2022-09-15T00:13:41.414Z,87.73
2022-09-15T00:16:14.644Z,88.79
2022-09-15T00:18:46.023Z,88.47
2022-09-15T00:21:15.228Z,90.96
2022-09-15T00:23:43.461Z,89.06
2022-09-15T00:26:13.909Z,89.08
2022-09-15T00:28:42.315Z,89.96
2022-09-15T00:31:12.538Z,90.54
2022-09-15T00:33:41.089Z,89.88
2022-09-15T00:36:14.206Z,89.95
2022-09-15T00:38:42.967Z,91.19
2022-09-15T00:41:13.392Z,91.88
2022-09-15T00:43:48.579Z,90.44
2022-09-15T00:46:19.034Z,89.93
2022-09-15T00:48:52.395Z,90.79
2022-09-15T00:51:28.215Z,91.89
2022-09-15T00:53:58.122Z,91.56
2022-09-15T00:56:27.513Z,91.95
2022-09-15T00:59:01.162Z,91.20
2022-09-15T01:01:31.678Z,92.76
2022-09-15T01:04:00.240Z,92.24
2022-09-15T01:06:34.343Z,92.87
2022-09-15T01:09:08.610Z,91.69
2022-09-15T01:11:36.818Z,92.36
2022-09-15T01:14:04.892Z,92.88
2022-09-15T01:20:11.531Z,92.34
2022-09-15T01:22:53.994Z,92.13
2022-09-15T01:25:40.289Z,93.07
2022-09-15T01:28:30.583Z,92.21
2022-09-15T01:31:03.757Z,92.38
2022-09-15T01:33:36.859Z,92.13
2022-09-15T01:36:11.566Z,92.46
2022-09-15T01:38:48.558Z,93.63
2022-09-15T01:41:19.438Z,93.57
2022-09-15T01:43:54.572Z,91.72
2022-09-15T01:46:27.671Z,92.21
2022-09-15T01:48:58.084Z,94.62
2022-09-15T01:51:28.133Z,92.98
2022-09-15T01:53:57.931Z,93.62
2022-09-15T01:56:26.275Z,93.88
2022-09-15T01:58:54.423Z,94.64
2022-09-15T02:01:31.774Z,94.61
2022-09-15T02:04:06.234Z,94.01
2022-09-15T02:06:37.389Z,95.58
2022-09-15T02:09:12.693Z,94.50
2022-09-15T02:11:52.260Z,94.37
2022-09-15T02:14:33.856Z,94.92
2022-09-15T02:17:05.524Z,97.75
2022-09-15T02:19:36.961Z,94.47
2022-09-15T02:22:11.187Z,96.46
2022-09-15T02:24:43.303Z,96.43
2022-09-15T02:27:16.176Z,96.08
2022-09-15T02:29:46.253Z,96.31
2022-09-15T02:32:20.001Z,96.84
2022-09-15T02:34:52.515Z,95.64
2022-09-15T02:37:23.942Z,96.73
2022-09-15T02:39:58.031Z,95.94
2022-09-15T02:42:26.993Z,96.61
2022-09-15T02:44:55.151Z,97.09
2022-09-15T02:47:26.360Z,96.65
2022-09-15T02:49:54.558Z,95.74
2022-09-15T02:52:22.655Z,97.52
2022-09-15T02:54:51.102Z,95.99
2022-09-15T02:57:19.867Z,95.96
2022-09-15T03:00:05.373Z,96.60
2022-09-15T03:02:35.212Z,98.59
2022-09-15T03:05:03.337Z,96.22
2022-09-15T03:07:32.046Z,96.18
2022-09-15T03:10:00.398Z,97.08
2022-09-15T03:12:28.323Z,97.50
2022-09-15T03:14:56.289Z,96.64
2022-09-15T03:17:24.410Z,96.75
2022-09-15T03:19:53.866Z,99.66
2022-09-15T03:22:22.247Z,96.98
2022-09-15T03:24:50.195Z,97.42
2022-09-15T03:27:18.282Z,98.22
2022-09-15T03:29:46.628Z,98.43
2022-09-15T03:32:15.456Z,98.25
2022-09-15T03:34:43.407Z,97.40
2022-09-15T03:37:12.883Z,97.85
2022-09-15T03:39:40.856Z,98.10
2022-09-15T03:42:09.230Z,98.12
2022-09-15T03:44:37.298Z,99.45
2022-09-15T03:47:05.522Z,98.43
2022-09-15T03:49:33.536Z,99.24
2022-09-15T03:52:01.640Z,100.00
2022-09-15T03:54:31.116Z,98.91
2022-09-15T03:56:59.060Z,99.46
2022-09-15T03:59:27.330Z,99.49
2022-09-15T04:01:55.360Z,98.83
2022-09-15T04:04:23.402Z,100.00
2022-09-15T04:06:51.369Z,99.39
2022-09-15T04:09:20.434Z,98.90
2022-09-15T04:11:49.904Z,100.00
2022-09-15T04:14:17.879Z,100.00
2022-09-15T04:16:45.835Z,100.00
2022-09-15T04:19:14.424Z,99.74
2022-09-15T04:21:42.440Z,100.00
2022-09-15T04:24:10.405Z,100.00
2022-09-15T04:26:38.429Z,99.53
2022-09-15T04:29:13.585Z,100.00
2022-09-15T04:31:41.644Z,100.00
2022-09-15T04:34:10.227Z,100.00
2022-09-15T04:36:38.399Z,100.00
2022-09-15T04:39:07.192Z,100.00
2022-09-15T04:41:35.261Z,100.00
2022-09-15T04:44:03.692Z,100.00
2022-09-15T04:46:33.179Z,100.00
2022-09-15T04:49:01.340Z,100.00
2022-09-15T04:51:29.445Z,100.00
2022-09-15T04:53:57.408Z,100.00
2022-09-15T04:56:27.409Z,100.00
2022-09-15T04:59:01.094Z,100.00
2022-09-15T05:01:35.096Z,100.00
2022-09-15T05:04:05.093Z,100.00
2022-09-15T05:06:34.852Z,100.00
2022-09-15T05:09:09.687Z,100.00
2022-09-15T05:11:38.700Z,100.00
2022-09-15T05:14:08.099Z,100.00
2022-09-15T05:16:37.645Z,100.00
2022-09-15T05:19:05.727Z,100.00
2022-09-15T05:21:34.313Z,100.00
2022-09-15T05:24:02.657Z,100.00
2022-09-15T05:26:31.141Z,100.00
2022-09-15T05:28:59.338Z,100.00
2022-09-15T05:31:30.653Z,100.00
2022-09-15T05:34:02.385Z,100.00
2022-09-15T05:36:30.866Z,100.00
2022-09-15T05:38:59.720Z,100.00
2022-09-15T05:41:29.100Z,100.00
2022-09-15T05:43:58.915Z,100.00
2022-09-15T05:46:29.293Z,100.00
2022-09-15T05:49:00.180Z,100.00
2022-09-15T05:51:30.178Z,100.00
2022-09-15T05:53:58.246Z,100.00
2022-09-15T05:56:26.180Z,100.00
2022-09-15T05:58:54.282Z,100.00
2022-09-15T06:01:23.920Z,100.00
2022-09-15T06:03:52.842Z,100.00
2022-09-15T06:06:23.279Z,100.00
2022-09-15T06:08:58.040Z,100.00
2022-09-15T06:11:28.321Z,100.00
2022-09-15T06:13:56.742Z,100.00
2022-09-15T06:16:26.689Z,100.00
2022-09-15T06:18:55.463Z,100.00
2022-09-15T06:21:27.581Z,100.00
2022-09-15T06:23:57.191Z,100.00
2022-09-15T06:26:26.044Z,100.00
2022-09-15T06:28:56.261Z,100.00
2022-09-15T06:31:25.338Z,100.00
2022-09-15T06:33:57.689Z,100.00
2022-09-15T06:36:29.553Z,100.00
2022-09-15T06:38:57.810Z,100.00
2022-09-15T06:41:26.384Z,100.00
2022-09-15T06:43:54.405Z,100.00
2022-09-15T06:46:25.158Z,100.00
2022-09-15T06:48:53.765Z,100.00
2022-09-15T06:51:23.417Z,100.00
2022-09-15T06:53:54.478Z,100.00
2022-09-15T06:56:24.465Z,100.00
2022-09-15T06:58:52.872Z,100.00
2022-09-15T07:01:23.172Z,100.00
2022-09-15T07:03:52.127Z,100.00
2022-09-15T07:06:20.498Z,100.00
2022-09-15T07:08:49.899Z,100.00
2022-09-15T07:11:19.375Z,100.00
2022-09-15T07:13:49.208Z,100.00
2022-09-15T07:16:18.981Z,100.00
2022-09-15T07:18:47.218Z,100.00
2022-09-15T07:21:17.462Z,100.00
2022-09-15T07:23:45.917Z,100.00
2022-09-15T07:26:16.382Z,100.00
2022-09-15T07:28:49.889Z,100.00
2022-09-15T07:31:20.648Z,100.00
2022-09-15T07:33:48.997Z,100.00
2022-09-15T07:36:17.954Z,100.00
2022-09-15T07:38:47.973Z,100.00
2022-09-15T07:41:21.879Z,100.00
2022-09-15T07:43:52.825Z,100.00
2022-09-15T07:46:22.905Z,100.00
2022-09-15T07:48:53.318Z,100.00
2022-09-15T07:51:21.537Z,100.00
2022-09-15T07:53:51.099Z,100.00
2022-09-15T07:56:19.785Z,100.00
2022-09-15T07:58:49.137Z,100.00
2022-09-15T08:01:20.286Z,100.00
2022-09-15T08:03:50.448Z,100.00
2022-09-15T08:06:19.906Z,100.00
2022-09-15T08:08:47.980Z,100.00
2022-09-15T08:11:19.025Z,100.00
2022-09-15T08:13:47.940Z,100.00
2022-09-15T08:16:19.359Z,98.79
2022-09-15T08:18:48.265Z,100.00
2022-09-15T08:21:20.175Z,99.03
2022-09-15T08:23:52.541Z,99.18
2022-09-15T08:26:20.661Z,99.34
2022-09-15T08:28:48.853Z,99.68
2022-09-15T08:31:18.908Z,99.48
2022-09-15T08:33:49.679Z,100.00
2022-09-15T08:36:17.751Z,97.29
2022-09-15T08:38:47.276Z,97.58
2022-09-15T08:41:20.060Z,97.28
2022-09-15T08:43:56.833Z,98.67
2022-09-15T08:46:31.367Z,95.65
2022-09-15T08:49:06.397Z,96.56
2022-09-15T08:51:41.876Z,97.24
2022-09-15T08:54:17.415Z,96.87
2022-09-15T08:56:45.813Z,96.61
2022-09-15T08:59:16.560Z,99.08
2022-09-15T09:01:58.588Z,99.03
2022-09-15T09:04:50.113Z,97.54
2022-09-15T09:07:33.074Z,97.64
2022-09-15T09:10:11.089Z,95.48
2022-09-15T09:12:57.361Z,94.61
2022-09-15T09:15:38.327Z,93.89
2022-09-15T09:18:36.348Z,92.64
2022-09-15T09:21:16.936Z,88.69
2022-09-15T09:23:51.432Z,89.93
2022-09-15T09:26:20.516Z,90.54
2022-09-15T09:28:55.324Z,90.50
2022-09-15T09:31:25.956Z,90.71
2022-09-15T09:34:00.019Z,88.79
2022-09-15T09:36:29.606Z,91.06
2022-09-15T09:38:58.607Z,88.67
2022-09-15T09:41:35.638Z,89.10
2022-09-15T09:44:05.535Z,89.99
2022-09-15T09:46:34.518Z,88.49
2022-09-15T09:49:07.630Z,89.51
2022-09-15T09:51:39.851Z,89.54
2022-09-15T09:54:20.582Z,88.56
2022-09-15T09:56:49.551Z,89.71
2022-09-15T09:59:35.835Z,88.55
2022-09-15T10:02:19.101Z,87.78
2022-09-15T10:04:49.014Z,87.55
2022-09-15T10:07:21.171Z,88.36
2022-09-15T10:09:52.965Z,85.84
2022-09-15T10:12:24.903Z,88.29
2022-09-15T10:14:56.620Z,85.40
2022-09-15T10:17:27.351Z,85.99
2022-09-15T10:19:57.549Z,86.07
2022-09-15T10:22:31.839Z,86.28
2022-09-15T10:25:01.521Z,84.74
2022-09-15T10:27:32.425Z,86.20
2022-09-15T10:30:01.253Z,81.85
2022-09-15T10:32:31.038Z,79.84
2022-09-15T10:35:11.599Z,81.79
2022-09-15T10:37:57.485Z,79.58
2022-09-15T10:40:35.849Z,81.29
2022-09-15T10:43:22.375Z,82.69
2022-09-15T10:45:54.985Z,79.94
2022-09-15T10:48:43.838Z,76.74
2022-09-15T10:51:27.953Z,78.37
2022-09-15T10:54:17.602Z,73.10
2022-09-15T10:56:50.043Z,73.31
2022-09-15T10:59:44.326Z,74.59
2022-09-15T11:02:38.782Z,72.50
2022-09-15T11:05:26.278Z,75.09
2022-09-15T11:08:07.476Z,75.74
2022-09-15T11:10:46.608Z,74.21
2022-09-15T11:13:22.358Z,74.83
2022-09-15T11:16:00.766Z,73.09
2022-09-15T11:18:51.379Z,75.84
2022-09-15T11:21:27.740Z,74.64
2022-09-15T11:24:06.695Z,72.32
2022-09-15T11:26:41.338Z,78.39
2022-09-15T11:29:19.740Z,73.52
2022-09-15T11:31:51.401Z,69.97
2022-09-15T11:34:25.210Z,73.61
2022-09-15T11:37:04.145Z,69.37
2022-09-15T11:39:40.674Z,71.45
2022-09-15T11:42:14.240Z,71.82
2022-09-15T11:44:45.636Z,73.65
2022-09-15T11:47:27.923Z,69.21
2022-09-15T11:49:59.141Z,68.48
2022-09-15T11:52:44.182Z,67.36
2022-09-15T11:55:25.338Z,69.60
2022-09-15T11:58:04.504Z,68.41
2022-09-15T12:00:43.414Z,66.87
2022-09-15T12:03:25.466Z,65.73
2022-09-15T12:06:51.473Z,64.70
2022-09-15T12:09:35.367Z,65.93
2022-09-15T12:12:17.506Z,62.06
2022-09-15T12:14:50.647Z,63.26
2022-09-15T12:17:26.221Z,62.70
2022-09-15T12:20:01.844Z,62.61
2022-09-15T12:22:37.873Z,63.05
2022-09-15T12:25:15.709Z,63.60
2022-09-15T12:27:44.096Z,61.84
2022-09-15T12:30:41.230Z,65.90
2022-09-15T12:33:42.437Z,64.96
2022-09-15T12:36:39.985Z,63.25
2022-09-15T12:39:23.892Z,61.33
2022-09-15T12:41:54.634Z,62.83
2022-09-15T12:44:32.069Z,60.43
2022-09-15T12:47:03.245Z,61.13
2022-09-15T12:49:35.149Z,60.94
2022-09-15T12:52:08.061Z,58.70
2022-09-15T12:54:39.455Z,61.70
2022-09-15T12:57:09.277Z,63.15
2022-09-15T12:59:37.659Z,58.84
2022-09-15T13:02:45.119Z,60.82
2022-09-15T13:05:14.615Z,64.21
2022-09-15T13:07:57.817Z,63.13
2022-09-15T13:10:33.123Z,59.02
2022-09-15T13:13:11.719Z,59.92
2022-09-15T13:15:46.307Z,58.89
2022-09-15T13:18:18.068Z,58.03
2022-09-15T13:20:54.963Z,59.53
2022-09-15T13:23:27.396Z,60.50
2022-09-15T13:26:01.121Z,60.29
2022-09-15T13:28:30.006Z,58.18
2022-09-15T13:31:13.611Z,58.53
2022-09-15T13:40:09.639Z,59.81
2022-09-15T13:42:57.316Z,57.50
2022-09-15T13:45:42.607Z,57.17
2022-09-15T13:48:31.066Z,59.72
2022-09-15T13:51:03.147Z,57.68
2022-09-15T13:53:48.071Z,55.07
2022-09-15T13:56:22.902Z,54.20
2022-09-15T13:58:54.966Z,54.75
2022-09-15T14:01:26.292Z,54.95
2022-09-15T14:03:59.675Z,55.05
2022-09-15T14:06:36.111Z,55.06
2022-09-15T14:09:08.918Z,58.81
2022-09-15T14:11:38.702Z,54.37
2022-09-15T14:14:22.172Z,54.15
2022-09-15T14:16:51.131Z,54.26
2022-09-15T14:19:33.885Z,53.99
2022-09-15T14:22:19.273Z,54.86
2022-09-15T14:24:48.038Z,56.40
2022-09-15T14:27:22.072Z,52.09
2022-09-15T14:29:55.260Z,53.87
2022-09-15T14:32:23.418Z,53.46
2022-09-15T14:34:51.950Z,54.06
2022-09-15T14:37:27.566Z,54.86
2022-09-15T14:39:57.513Z,53.80
2022-09-15T14:42:30.679Z,53.23
2022-09-15T14:48:02.172Z,53.48
2022-09-15T14:50:33.145Z,53.92
2022-09-15T14:53:07.851Z,52.63
2022-09-15T14:55:42.273Z,52.70
2022-09-15T14:58:19.640Z,53.65
2022-09-15T15:00:55.699Z,51.53
2022-09-15T15:03:32.695Z,51.16
2022-09-15T15:06:25.376Z,51.99
2022-09-15T15:09:03.080Z,53.62
2022-09-15T15:11:32.986Z,53.88
2022-09-15T15:14:01.648Z,50.45
2022-09-15T15:16:32.917Z,52.19
2022-09-15T15:19:01.643Z,51.52
2022-09-15T15:21:37.908Z,53.33
2022-09-15T15:24:18.896Z,52.38
2022-09-15T15:26:49.050Z,51.47
2022-09-15T15:29:40.771Z,52.25
2022-09-15T15:32:13.508Z,53.30
2022-09-15T15:34:49.598Z,53.67
2022-09-15T15:37:26.377Z,53.63
2022-09-15T15:39:57.052Z,55.16
2022-09-15T15:42:26.264Z,54.15
2022-09-15T15:45:20.785Z,53.89
2022-09-15T15:47:49.260Z,54.67
2022-09-15T15:50:21.185Z,52.99
2022-09-15T15:52:55.894Z,54.89
2022-09-15T15:55:31.718Z,55.08
2022-09-15T15:58:00.231Z,54.92
2022-09-15T16:00:34.115Z,54.69
2022-09-15T16:03:02.471Z,55.18
2022-09-15T16:05:31.050Z,56.94
2022-09-15T16:08:03.329Z,56.19
2022-09-15T16:10:39.967Z,57.50
2022-09-15T16:13:08.690Z,55.33
2022-09-15T16:15:36.865Z,55.52
2022-09-15T16:18:05.384Z,55.66
2022-09-15T16:20:33.591Z,55.98
2022-09-15T16:23:01.850Z,55.57
2022-09-15T16:25:41.905Z,57.37
2022-09-15T16:28:11.217Z,56.14
2022-09-15T16:30:39.840Z,56.24
2022-09-15T16:33:07.858Z,54.68
2022-09-15T16:35:44.642Z,56.93
2022-09-15T16:38:26.228Z,56.08
2022-09-15T16:40:56.702Z,56.19
2022-09-15T16:43:25.090Z,56.18
2022-09-15T16:45:54.103Z,56.07
2022-09-15T16:48:24.835Z,55.20
2022-09-15T16:51:20.380Z,55.73
2022-09-15T16:53:41.699Z,55.07
2022-09-15T16:56:13.173Z,53.78
2022-09-15T16:58:41.681Z,54.38
2022-09-15T17:01:18.801Z,56.81
2022-09-15T17:03:47.271Z,54.20
2022-09-15T17:06:17.722Z,55.85
2022-09-15T17:08:46.344Z,56.30
2022-09-15T17:11:17.741Z,55.37
2022-09-15T17:13:47.160Z,54.11
2022-09-15T17:16:19.329Z,53.39
2022-09-15T17:18:48.085Z,54.80
2022-09-15T17:21:18.896Z,55.08
2022-09-15T17:23:47.931Z,56.71
2022-09-15T17:26:20.764Z,54.27
2022-09-15T17:28:49.278Z,54.89
2022-09-15T17:31:18.902Z,54.89
2022-09-15T17:33:48.178Z,54.48
2022-09-15T17:36:16.688Z,53.20
2022-09-15T17:38:47.884Z,54.84
2022-09-15T17:41:19.267Z,55.96
2022-09-15T17:43:47.823Z,56.84
2022-09-15T17:46:16.117Z,56.54
2022-09-15T17:48:44.251Z,54.45
2022-09-15T17:51:16.293Z,57.83
2022-09-15T17:53:45.202Z,58.63
2022-09-15T17:56:13.587Z,57.62
2022-09-15T17:58:43.262Z,56.45
2022-09-15T18:01:14.496Z,58.39
2022-09-15T18:03:44.689Z,59.00
2022-09-15T18:06:13.122Z,58.58
2022-09-15T18:08:41.372Z,59.42
2022-09-15T18:11:11.616Z,55.00
2022-09-15T18:13:39.680Z,55.96
2022-09-15T18:16:13.906Z,54.71
2022-09-15T18:18:43.008Z,53.87
2022-09-15T18:21:23.557Z,54.09
2022-09-15T18:23:51.615Z,55.75
2022-09-15T18:26:23.874Z,58.20
2022-09-15T18:28:56.496Z,55.68
2022-09-15T18:31:26.711Z,54.55
2022-09-15T18:33:54.953Z,56.78
2022-09-15T18:36:23.223Z,54.45
2022-09-15T18:38:51.276Z,56.17
2022-09-15T18:41:19.567Z,55.75
2022-09-15T18:43:49.156Z,57.64
2022-09-15T18:46:17.780Z,56.40
2022-09-15T18:48:48.076Z,58.65
2022-09-15T18:51:24.026Z,57.00
2022-09-15T18:53:54.431Z,57.85
2022-09-15T18:56:22.956Z,58.89
2022-09-15T18:58:53.763Z,57.00
2022-09-15T19:01:23.448Z,54.70
2022-09-15T19:03:53.149Z,56.93
2022-09-15T19:06:23.320Z,56.98
2022-09-15T19:08:52.232Z,56.19
2022-09-15T19:11:20.480Z,55.52
2022-09-15T19:13:48.729Z,57.85
2022-09-15T19:16:18.255Z,55.62
2022-09-15T19:18:50.837Z,56.39
2022-09-15T19:21:23.934Z,55.03
2022-09-15T19:23:57.211Z,55.50
2022-09-15T19:26:28.848Z,55.85
2022-09-15T19:28:57.692Z,56.01
2022-09-15T19:31:26.855Z,56.83
2022-09-15T19:33:55.116Z,54.03
2022-09-15T19:36:28.454Z,55.56
2022-09-15T19:38:57.497Z,57.23
2022-09-15T19:41:25.566Z,53.55
2022-09-15T19:43:54.017Z,56.80
2022-09-15T19:46:24.230Z,56.16
2022-09-15T19:48:52.780Z,55.78
2022-09-15T19:51:21.930Z,55.81
2022-09-15T19:53:55.271Z,55.23
2022-09-15T19:56:27.120Z,55.39
2022-09-15T19:58:56.860Z,54.74
2022-09-15T20:01:26.271Z,55.13
2022-09-15T20:06:41.757Z,54.30
2022-09-15T20:09:14.091Z,53.98
2022-09-15T20:11:42.286Z,55.57
2022-09-15T20:14:10.591Z,57.50
2022-09-15T20:16:38.683Z,57.80
2022-09-15T20:19:07.152Z,55.36
2022-09-15T20:21:52.994Z,56.31
2022-09-15T20:24:23.628Z,55.32
2022-09-15T20:26:52.140Z,55.52
2022-09-15T20:29:21.395Z,57.56
2022-09-15T20:31:49.756Z,57.41
2022-09-15T20:34:18.665Z,56.31
2022-09-15T20:36:46.757Z,55.60
2022-09-15T20:39:16.293Z,55.41
2022-09-15T20:41:45.975Z,57.28
2022-09-15T20:44:14.468Z,56.81
2022-09-15T20:46:42.803Z,59.02
2022-09-15T20:49:11.367Z,56.91
2022-09-15T20:51:40.194Z,57.66
2022-09-15T20:54:08.313Z,55.38
2022-09-15T20:56:37.406Z,54.57
2022-09-15T20:59:10.278Z,56.09
2022-09-15T21:01:39.799Z,55.20
2022-09-15T21:04:09.383Z,56.21
2022-09-15T21:06:38.173Z,55.31
2022-09-15T21:09:07.384Z,58.23
2022-09-15T21:11:36.019Z,55.91
2022-09-15T21:14:05.979Z,58.45
2022-09-15T21:16:34.948Z,56.34
2022-09-15T21:19:03.266Z,53.92
2022-09-15T21:21:33.811Z,55.97
2022-09-15T21:24:04.017Z,56.09
2022-09-15T21:26:33.712Z,54.63
2022-09-15T21:29:02.299Z,53.54
2022-09-15T21:31:33.694Z,55.65
2022-09-15T21:34:01.984Z,55.36
2022-09-15T21:36:31.941Z,53.59
2022-09-15T21:39:02.763Z,54.58
2022-09-15T21:41:31.028Z,55.58
2022-09-15T21:44:01.089Z,53.98
2022-09-15T21:46:32.120Z,55.61
2022-09-15T21:49:00.956Z,55.56
2022-09-15T21:51:30.893Z,55.93
2022-09-15T21:54:00.438Z,54.56
2022-09-15T21:56:30.237Z,53.93
2022-09-15T21:58:58.679Z,54.77
2022-09-15T22:01:29.252Z,54.45
2022-09-15T22:04:00.757Z,57.56
2022-09-15T22:06:31.942Z,58.02
2022-09-15T22:09:38.732Z,58.95
2022-09-15T22:12:22.277Z,59.19
2022-09-15T22:14:50.388Z,59.32
2022-09-15T22:17:18.371Z,59.49
2022-09-15T22:19:47.817Z,60.03
2022-09-15T22:22:15.874Z,59.95
2022-09-15T22:24:44.792Z,59.82
2022-09-15T22:27:13.289Z,61.03
2022-09-15T22:29:41.519Z,60.79
2022-09-15T22:32:09.578Z,56.40
2022-09-15T22:34:37.742Z,56.20
2022-09-15T22:37:07.398Z,58.94
2022-09-15T22:39:58.923Z,58.09
2022-09-15T22:42:23.992Z,57.69
2022-09-15T22:44:52.048Z,56.83
2022-09-15T22:47:20.259Z,56.35
2022-09-15T22:49:48.280Z,56.76
2022-09-15T22:52:17.847Z,56.82
2022-09-15T22:54:45.918Z,56.93
2022-09-15T22:57:14.139Z,56.87
2022-09-15T22:59:42.553Z,58.42
2022-09-15T23:02:10.657Z,57.32
2022-09-15T23:04:38.970Z,56.86
2022-09-15T23:07:07.211Z,58.12
2022-09-15T23:09:36.925Z,57.82
2022-09-15T23:12:05.366Z,58.65
2022-09-15T23:14:33.577Z,58.09
2022-09-15T23:17:01.682Z,57.48
2022-09-15T23:19:29.687Z,58.25
2022-09-15T23:21:57.830Z,58.90
2022-09-15T23:24:25.983Z,58.03
2022-09-15T23:26:55.547Z,57.81
2022-09-15T23:29:26.332Z,57.32
2022-09-15T23:31:55.141Z,57.91
2022-09-15T23:34:23.210Z,57.83
2022-09-15T23:36:51.283Z,58.71
2022-09-15T23:39:19.335Z,59.41
2022-09-15T23:41:47.493Z,57.75
2022-09-15T23:44:16.933Z,58.03
2022-09-15T23:46:45.058Z,58.68
2022-09-15T23:49:17.993Z,58.07
2022-09-15T23:51:46.901Z,58.70
2022-09-15T23:54:15.238Z,59.62
2022-09-15T23:56:43.402Z,59.23
2022-09-15T23:59:11.465Z,59.50
